createdAt,value
2018-08-20T00:02:27.887Z,6.43
2018-08-20T00:04:59.083Z,7.47
2018-08-20T00:07:27.129Z,7.00
2018-08-20T00:09:55.985Z,8.70
2018-08-20T00:12:23.706Z,8.00
2018-08-20T00:14:52.857Z,6.50
2018-08-20T00:17:20.907Z,5.70
2018-08-20T00:19:48.578Z,5.60
2018-08-20T00:22:16.246Z,11.17
2018-08-20T00:24:44.691Z,7.40
2018-08-20T00:27:12.390Z,5.83
2018-08-20T00:29:41.059Z,8.57
2018-08-20T00:32:08.701Z,5.83
2018-08-20T00:34:36.352Z,10.60
2018-08-20T00:37:04.063Z,5.90
2018-08-20T00:39:31.738Z,8.40
2018-08-20T00:41:59.424Z,9.33
2018-08-20T00:44:27.341Z,8.80
2018-08-20T00:46:55.303Z,7.70
2018-08-20T00:49:23.192Z,7.43
2018-08-20T00:51:51.256Z,7.60
2018-08-20T00:54:19.437Z,6.93
2018-08-20T00:56:47.462Z,7.57
2018-08-20T00:59:15.130Z,7.23
2018-08-20T01:01:42.814Z,7.27
2018-08-20T01:04:10.806Z,8.67
2018-08-20T01:06:38.808Z,8.47
2018-08-20T01:09:07.485Z,8.30
2018-08-20T01:11:35.243Z,8.23
2018-08-20T01:14:02.937Z,7.27
2018-08-20T01:16:30.651Z,6.60
2018-08-20T01:18:58.341Z,7.33
2018-08-20T01:21:26.053Z,6.23
2018-08-20T01:23:54.005Z,7.70
2018-08-20T01:26:21.937Z,7.40
2018-08-20T01:28:49.914Z,7.63
2018-08-20T01:31:17.592Z,8.37
2018-08-20T01:33:45.518Z,9.00
2018-08-20T01:36:13.713Z,7.90
2018-08-20T01:38:41.421Z,7.90
2018-08-20T01:41:09.146Z,6.80
2018-08-20T01:43:36.823Z,7.70
2018-08-20T01:46:04.505Z,7.40
2018-08-20T01:48:33.023Z,8.43
2018-08-20T01:51:00.739Z,7.77
2018-08-20T01:53:28.438Z,6.73
2018-08-20T01:55:56.095Z,7.50
2018-08-20T01:58:23.785Z,7.50
2018-08-20T02:00:51.409Z,6.50
2018-08-20T02:03:19.566Z,8.00
2018-08-20T02:05:47.293Z,7.63
2018-08-20T02:08:14.968Z,7.03
2018-08-20T02:10:42.621Z,6.80
2018-08-20T02:13:10.297Z,5.77
2018-08-20T02:15:39.342Z,8.43
2018-08-20T02:18:08.959Z,6.70
2018-08-20T02:20:36.609Z,8.97
2018-08-20T02:23:04.616Z,9.80
2018-08-20T02:25:32.690Z,9.57
2018-08-20T02:28:00.606Z,8.90
2018-08-20T02:30:28.821Z,8.90
2018-08-20T02:32:56.911Z,8.00
2018-08-20T02:35:25.425Z,6.63
2018-08-20T02:37:53.461Z,9.00
2018-08-20T02:40:21.133Z,8.33
2018-08-20T02:42:48.797Z,8.80
2018-08-20T02:45:18.237Z,8.13
2018-08-20T02:47:46.559Z,7.97
2018-08-20T02:50:14.966Z,9.07
2018-08-20T02:52:43.357Z,6.80
2018-08-20T02:55:11.345Z,8.77
2018-08-20T02:57:39.462Z,5.97
2018-08-20T03:00:09.048Z,7.70
2018-08-20T03:02:36.850Z,5.97
2018-08-20T03:05:04.726Z,6.53
2018-08-20T03:07:32.506Z,8.93
2018-08-20T03:10:00.443Z,5.80
2018-08-20T03:12:28.241Z,6.70
2018-08-20T03:14:55.872Z,10.40
2018-08-20T03:17:23.775Z,7.83
2018-08-20T03:19:51.700Z,8.80
2018-08-20T03:22:19.786Z,7.07
2018-08-20T03:24:47.567Z,9.13
2018-08-20T03:27:15.608Z,8.30
2018-08-20T03:29:43.563Z,7.40
2018-08-20T03:32:11.502Z,7.37
2018-08-20T03:34:39.162Z,6.03
2018-08-20T03:37:06.798Z,6.90
2018-08-20T03:39:34.747Z,6.60
2018-08-20T03:42:02.920Z,7.90
2018-08-20T03:44:30.836Z,7.07
2018-08-20T03:46:58.524Z,10.10
2018-08-20T03:49:26.317Z,6.90
2018-08-20T03:51:54.016Z,7.20
2018-08-20T03:54:22.030Z,5.20
2018-08-20T03:56:50.032Z,6.60
2018-08-20T03:59:30.224Z,9.37
2018-08-20T04:01:59.641Z,6.57
2018-08-20T04:04:28.413Z,6.50
2018-08-20T04:06:56.241Z,7.93
2018-08-20T04:09:23.909Z,6.80
2018-08-20T04:11:51.788Z,6.23
2018-08-20T04:14:19.793Z,7.40
2018-08-20T04:16:47.854Z,6.17
2018-08-20T04:19:15.525Z,9.23
2018-08-20T04:21:43.514Z,6.30
2018-08-20T04:24:11.814Z,10.33
2018-08-20T04:26:40.068Z,7.73
2018-08-20T04:29:08.074Z,5.97
2018-08-20T04:31:36.097Z,9.10
2018-08-20T04:34:04.041Z,7.70
2018-08-20T04:36:31.788Z,6.23
2018-08-20T04:38:59.461Z,5.70
2018-08-20T04:41:27.115Z,6.27
2018-08-20T04:43:55.101Z,6.83
2018-08-20T04:46:22.754Z,6.67
2018-08-20T04:48:50.586Z,6.13
2018-08-20T04:51:18.870Z,5.47
2018-08-20T04:53:46.333Z,7.57
2018-08-20T04:56:14.293Z,5.90
2018-08-20T04:58:42.230Z,5.87
2018-08-20T05:01:10.506Z,8.33
2018-08-20T05:03:38.220Z,5.73
2018-08-20T05:06:06.072Z,6.90
2018-08-20T05:08:34.003Z,5.30
2018-08-20T05:11:01.701Z,7.93
2018-08-20T05:13:29.708Z,4.10
2018-08-20T05:15:57.374Z,5.07
2018-08-20T05:18:25.188Z,5.90
2018-08-20T05:20:53.169Z,7.23
2018-08-20T05:23:21.503Z,5.00
2018-08-20T05:25:49.259Z,5.27
2018-08-20T05:28:17.564Z,5.67
2018-08-20T05:30:45.303Z,5.20
2018-08-20T05:33:13.247Z,5.63
2018-08-20T05:35:40.989Z,6.27
2018-08-20T05:38:09.005Z,5.60
2018-08-20T05:40:36.637Z,5.10
2018-08-20T05:43:04.348Z,6.10
2018-08-20T05:45:32.013Z,6.70
2018-08-20T05:47:59.722Z,5.93
2018-08-20T05:50:27.349Z,3.80
2018-08-20T05:52:54.985Z,4.63
2018-08-20T05:55:22.669Z,4.30
2018-08-20T05:57:50.390Z,4.83
2018-08-20T06:00:18.070Z,5.10
2018-08-20T06:02:46.648Z,4.27
2018-08-20T06:05:14.308Z,7.63
2018-08-20T06:07:42.884Z,7.20
2018-08-20T06:10:10.726Z,4.93
2018-08-20T06:12:39.079Z,4.77
2018-08-20T06:15:09.908Z,5.40
2018-08-20T06:17:38.002Z,6.03
2018-08-20T06:20:16.041Z,4.10
2018-08-20T06:22:44.432Z,4.30
2018-08-20T06:25:13.000Z,5.50
2018-08-20T06:27:41.198Z,5.77
2018-08-20T06:30:16.628Z,4.83
2018-08-20T06:32:45.018Z,6.10
2018-08-20T06:35:13.011Z,4.30
2018-08-20T06:37:41.258Z,5.00
2018-08-20T06:40:14.874Z,4.63
2018-08-20T06:42:42.777Z,5.00
2018-08-20T06:45:14.930Z,4.73
2018-08-20T06:47:43.745Z,5.60
2018-08-20T06:50:11.441Z,4.37
2018-08-20T06:52:39.709Z,4.80
2018-08-20T06:55:07.355Z,5.37
2018-08-20T06:57:35.338Z,3.03
2018-08-20T07:00:03.223Z,5.67
2018-08-20T07:02:31.131Z,4.10
2018-08-20T07:04:58.765Z,3.90
2018-08-20T07:07:26.866Z,3.40
2018-08-20T07:09:55.083Z,4.63
2018-08-20T07:12:22.778Z,4.53
2018-08-20T07:14:50.473Z,3.80
2018-08-20T07:17:19.144Z,4.00
2018-08-20T07:19:47.033Z,3.60
2018-08-20T07:22:15.179Z,4.83
2018-08-20T07:24:42.993Z,4.43
2018-08-20T07:27:10.874Z,4.57
2018-08-20T07:29:40.610Z,5.37
2018-08-20T07:32:11.011Z,4.83
2018-08-20T07:34:41.202Z,4.00
2018-08-20T07:37:10.769Z,5.93
2018-08-20T07:39:39.108Z,4.87
2018-08-20T07:42:06.882Z,4.10
2018-08-20T07:44:34.919Z,3.60
2018-08-20T07:47:02.578Z,5.13
2018-08-20T07:49:30.260Z,4.23
2018-08-20T07:51:58.054Z,4.40
2018-08-20T07:54:25.705Z,2.90
2018-08-20T07:56:53.596Z,3.10
2018-08-20T07:59:21.250Z,2.90
2018-08-20T08:01:49.432Z,3.27
2018-08-20T08:04:17.109Z,2.63
2018-08-20T08:06:44.720Z,3.50
2018-08-20T08:09:12.490Z,3.30
2018-08-20T08:11:40.407Z,3.13
2018-08-20T08:14:08.074Z,4.17
2018-08-20T08:16:37.283Z,3.17
2018-08-20T08:19:05.105Z,4.00
2018-08-20T08:21:32.812Z,3.13
2018-08-20T08:24:01.149Z,3.30
2018-08-20T08:26:29.054Z,3.23
2018-08-20T08:28:57.328Z,3.87
2018-08-20T08:31:25.548Z,3.50
2018-08-20T08:33:53.455Z,3.30
2018-08-20T08:36:21.144Z,3.40
2018-08-20T08:38:48.906Z,5.40
2018-08-20T08:41:16.912Z,3.50
2018-08-20T08:43:44.617Z,3.53
2018-08-20T08:46:12.581Z,2.87
2018-08-20T08:48:40.567Z,3.27
2018-08-20T08:51:08.274Z,2.47
2018-08-20T08:53:36.290Z,4.00
2018-08-20T08:56:04.537Z,3.30
2018-08-20T08:58:32.242Z,2.97
2018-08-20T09:00:59.954Z,1.70
2018-08-20T09:03:30.396Z,2.80
2018-08-20T09:05:58.760Z,3.03
2018-08-20T09:08:26.450Z,2.00
2018-08-20T09:10:54.079Z,3.90
2018-08-20T09:13:22.141Z,6.10
2018-08-20T09:15:49.906Z,3.53
2018-08-20T09:18:17.793Z,2.43
2018-08-20T09:20:45.733Z,2.60
2018-08-20T09:23:13.453Z,2.50
2018-08-20T09:25:41.134Z,3.57
2018-08-20T09:28:08.870Z,2.10
2018-08-20T09:30:37.335Z,5.23
2018-08-20T09:33:05.076Z,2.00
2018-08-20T09:35:33.192Z,2.20
2018-08-20T09:38:00.916Z,3.30
2018-08-20T09:40:29.030Z,4.87
2018-08-20T09:42:56.911Z,2.70
2018-08-20T09:45:24.542Z,3.53
2018-08-20T09:47:52.216Z,2.50
2018-08-20T09:50:19.844Z,4.20
2018-08-20T09:52:47.503Z,3.03
2018-08-20T09:55:15.194Z,2.00
2018-08-20T09:57:43.617Z,2.27
2018-08-20T10:00:18.184Z,3.63
2018-08-20T10:02:45.843Z,1.97
2018-08-20T10:05:13.474Z,2.30
2018-08-20T10:07:41.686Z,2.00
2018-08-20T10:10:09.316Z,2.10
2018-08-20T10:12:37.296Z,2.03
2018-08-20T10:15:05.272Z,2.40
2018-08-20T10:17:33.014Z,2.00
2018-08-20T10:20:00.680Z,3.13
2018-08-20T10:22:29.338Z,2.13
2018-08-20T10:24:57.298Z,6.33
2018-08-20T10:27:25.062Z,3.63
2018-08-20T10:29:53.316Z,2.13
2018-08-20T10:32:20.957Z,2.60
2018-08-20T10:34:48.920Z,2.47
2018-08-20T10:37:16.544Z,1.97
2018-08-20T10:39:44.392Z,1.80
2018-08-20T10:42:12.264Z,1.90
2018-08-20T10:44:45.493Z,1.93
2018-08-20T10:47:13.447Z,2.17
2018-08-20T10:49:42.136Z,4.60
2018-08-20T10:52:10.077Z,2.93
2018-08-20T10:54:37.754Z,2.43
2018-08-20T10:57:05.850Z,2.67
2018-08-20T10:59:33.816Z,3.13
2018-08-20T11:02:01.540Z,2.03
2018-08-20T11:04:29.154Z,2.87
2018-08-20T11:06:57.109Z,2.30
2018-08-20T11:09:24.743Z,3.70
2018-08-20T11:11:52.743Z,3.37
2018-08-20T11:14:20.626Z,3.70
2018-08-20T11:16:48.586Z,2.53
2018-08-20T11:19:16.223Z,2.97
2018-08-20T11:21:44.261Z,2.50
2018-08-20T11:24:11.934Z,2.67
2018-08-20T11:26:40.147Z,4.37
2018-08-20T11:29:07.800Z,2.10
2018-08-20T11:31:35.480Z,2.30
2018-08-20T11:34:03.564Z,2.27
2018-08-20T11:36:31.262Z,3.43
2018-08-20T11:38:58.887Z,2.50
2018-08-20T11:41:26.604Z,3.83
2018-08-20T11:43:54.269Z,2.53
2018-08-20T11:46:22.260Z,3.87
2018-08-20T11:48:49.961Z,1.90
2018-08-20T11:51:17.900Z,2.20
2018-08-20T11:53:45.637Z,3.80
2018-08-20T11:56:14.123Z,2.03
2018-08-20T11:58:42.228Z,2.00
2018-08-20T12:01:09.999Z,2.20
2018-08-20T12:03:37.951Z,2.33
2018-08-20T12:06:05.775Z,3.47
2018-08-20T12:08:33.723Z,2.50
2018-08-20T12:11:01.348Z,5.70
2018-08-20T12:13:29.057Z,2.63
2018-08-20T12:15:56.957Z,2.93
2018-08-20T12:18:24.874Z,3.33
2018-08-20T12:20:52.825Z,3.07
2018-08-20T12:23:20.513Z,3.23
2018-08-20T12:25:49.287Z,3.17
2018-08-20T12:28:17.356Z,3.60
2018-08-20T12:30:45.060Z,2.27
2018-08-20T12:33:12.950Z,1.57
2018-08-20T12:35:41.023Z,2.33
2018-08-20T12:38:09.065Z,1.67
2018-08-20T12:40:38.669Z,2.20
2018-08-20T12:43:06.459Z,2.30
2018-08-20T12:45:34.334Z,2.47
2018-08-20T12:48:02.045Z,2.40
2018-08-20T12:50:30.139Z,2.20
2018-08-20T12:52:58.194Z,2.17
2018-08-20T12:55:25.801Z,1.97
2018-08-20T12:57:53.793Z,3.73
2018-08-20T13:00:21.474Z,1.87
2018-08-20T13:02:49.553Z,2.23
2018-08-20T13:05:17.551Z,5.30
2018-08-20T13:07:45.480Z,1.63
2018-08-20T13:10:13.429Z,1.90
2018-08-20T13:12:41.106Z,1.30
2018-08-20T13:15:08.865Z,2.90
2018-08-20T13:17:36.826Z,1.77
2018-08-20T13:20:04.632Z,1.73
2018-08-20T13:22:32.356Z,2.10
2018-08-20T13:25:00.604Z,1.50
2018-08-20T13:27:28.251Z,2.97
2018-08-20T13:29:55.979Z,1.90
2018-08-20T13:32:23.959Z,1.37
2018-08-20T13:34:51.720Z,3.00
2018-08-20T13:37:19.715Z,4.60
2018-08-20T13:39:47.301Z,3.43
2018-08-20T13:42:15.220Z,3.10
2018-08-20T13:44:42.912Z,1.40
2018-08-20T13:47:10.913Z,2.20
2018-08-20T13:49:38.895Z,2.13
2018-08-20T13:52:06.887Z,2.10
2018-08-20T13:54:34.770Z,1.40
2018-08-20T13:57:02.664Z,3.17
2018-08-20T13:59:30.657Z,1.70
2018-08-20T14:01:58.940Z,2.90
2018-08-20T14:04:26.926Z,2.33
2018-08-20T14:06:54.590Z,1.97
2018-08-20T14:09:22.313Z,1.57
2018-08-20T14:11:50.341Z,2.63
2018-08-20T14:14:17.961Z,2.13
2018-08-20T14:16:45.670Z,1.83
2018-08-20T14:19:16.998Z,3.63
2018-08-20T14:21:45.735Z,8.57
2018-08-20T14:24:14.570Z,2.13
2018-08-20T14:26:42.225Z,3.17
2018-08-20T14:29:09.881Z,1.67
2018-08-20T14:31:37.664Z,1.83
2018-08-20T14:34:05.386Z,1.73
2018-08-20T14:36:33.104Z,1.87
2018-08-20T14:39:00.757Z,1.53
2018-08-20T14:41:28.388Z,2.67
2018-08-20T14:43:56.060Z,2.87
2018-08-20T14:46:24.112Z,4.10
2018-08-20T14:48:53.021Z,2.80
2018-08-20T14:51:21.056Z,2.67
2018-08-20T14:53:48.682Z,1.97
2018-08-20T14:56:16.353Z,4.37
2018-08-20T14:58:44.353Z,1.90
2018-08-20T15:01:12.290Z,2.67
2018-08-20T15:03:40.550Z,2.97
2018-08-20T15:06:08.216Z,1.67
2018-08-20T15:08:37.866Z,2.37
2018-08-20T15:11:05.538Z,6.43
2018-08-20T15:13:33.252Z,1.60
2018-08-20T15:16:01.341Z,3.60
2018-08-20T15:18:29.231Z,2.53
2018-08-20T15:20:56.893Z,3.40
2018-08-20T15:23:24.941Z,3.70
2018-08-20T15:25:52.994Z,1.83
2018-08-20T15:28:20.687Z,2.57
2018-08-20T15:30:48.379Z,2.00
2018-08-20T15:33:16.394Z,1.57
2018-08-20T15:35:44.158Z,1.70
2018-08-20T15:38:11.822Z,2.90
2018-08-20T15:40:39.882Z,2.60
2018-08-20T15:43:07.588Z,2.63
2018-08-20T15:45:35.682Z,1.70
2018-08-20T15:48:03.410Z,2.03
2018-08-20T15:50:31.065Z,2.70
2018-08-20T15:52:59.150Z,3.27
2018-08-20T15:55:26.794Z,2.43
2018-08-20T15:57:54.827Z,4.10
2018-08-20T16:00:22.495Z,3.00
2018-08-20T16:02:51.264Z,2.13
2018-08-20T16:05:19.002Z,3.50
2018-08-20T16:07:47.133Z,2.00
2018-08-20T16:10:15.172Z,4.13
2018-08-20T16:12:43.110Z,1.83
2018-08-20T16:15:10.903Z,7.63
2018-08-20T16:17:38.682Z,4.27
2018-08-20T16:20:06.960Z,2.83
2018-08-20T16:22:35.003Z,2.10
2018-08-20T16:25:02.658Z,2.77
2018-08-20T16:27:30.754Z,3.47
2018-08-20T16:29:58.834Z,1.90
2018-08-20T16:32:26.571Z,1.70
2018-08-20T16:34:54.213Z,5.63
2018-08-20T16:37:21.876Z,1.73
2018-08-20T16:39:49.550Z,2.57
2018-08-20T16:42:17.207Z,3.10
2018-08-20T16:44:44.950Z,1.70
2018-08-20T16:47:13.161Z,4.33
2018-08-20T16:49:41.117Z,3.00
2018-08-20T16:52:09.033Z,3.00
2018-08-20T16:54:36.714Z,1.80
2018-08-20T16:57:04.388Z,2.10
2018-08-20T16:59:33.199Z,2.00
2018-08-20T17:02:03.741Z,4.10
2018-08-20T17:04:40.877Z,2.97
2018-08-20T17:07:09.552Z,5.50
2018-08-20T17:09:37.233Z,3.00
2018-08-20T17:12:04.956Z,1.90
2018-08-20T17:14:32.852Z,4.20
2018-08-20T17:17:00.704Z,2.43
2018-08-20T17:19:28.752Z,1.50
2018-08-20T17:21:57.026Z,2.60
2018-08-20T17:24:30.249Z,2.40
2018-08-20T17:27:02.086Z,1.60
2018-08-20T17:29:31.250Z,2.60
2018-08-20T17:32:05.255Z,2.00
2018-08-20T17:34:36.450Z,2.60
2018-08-20T17:37:04.138Z,4.23
2018-08-20T17:39:31.996Z,1.30
2018-08-20T17:41:59.997Z,1.40
2018-08-20T17:44:27.736Z,1.63
2018-08-20T17:46:55.421Z,1.87
2018-08-20T17:49:28.930Z,2.00
2018-08-20T17:51:56.587Z,2.87
2018-08-20T17:54:25.222Z,1.60
2018-08-20T17:56:53.792Z,2.33
2018-08-20T17:59:23.518Z,2.03
2018-08-20T18:01:51.755Z,1.43
2018-08-20T18:04:19.459Z,1.43
2018-08-20T18:06:50.029Z,2.80
2018-08-20T18:09:17.669Z,2.90
2018-08-20T18:11:55.510Z,1.83
2018-08-20T18:14:24.609Z,1.80
2018-08-20T18:16:52.860Z,4.40
2018-08-20T18:19:20.598Z,2.00
2018-08-20T18:21:48.722Z,1.90
2018-08-20T18:24:23.053Z,4.90
2018-08-20T18:26:56.670Z,1.63
2018-08-20T18:29:24.356Z,1.83
2018-08-20T18:31:58.524Z,2.67
2018-08-20T18:34:26.204Z,1.73
2018-08-20T18:36:53.890Z,2.17
2018-08-20T18:39:21.564Z,2.40
2018-08-20T18:41:59.431Z,8.50
2018-08-20T18:44:27.639Z,1.43
2018-08-20T18:47:01.643Z,3.10
2018-08-20T18:49:29.492Z,2.93
2018-08-20T18:52:14.623Z,1.73
2018-08-20T18:54:51.630Z,2.07
2018-08-20T18:57:25.461Z,4.20
2018-08-20T18:59:55.994Z,4.03
2018-08-20T19:02:40.801Z,1.20
2018-08-20T19:05:12.165Z,1.67
2018-08-20T19:07:40.589Z,2.33
2018-08-20T19:10:29.460Z,2.43
2018-08-20T19:12:59.967Z,2.33
2018-08-20T19:15:38.142Z,3.07
2018-08-20T19:18:11.649Z,1.57
2018-08-20T19:20:43.542Z,1.40
2018-08-20T19:23:12.144Z,1.60
2018-08-20T19:25:39.892Z,1.53
2018-08-20T19:28:12.863Z,1.60
2018-08-20T19:30:40.518Z,1.70
2018-08-20T19:33:14.017Z,2.80
2018-08-20T19:35:42.300Z,2.30
2018-08-20T19:38:09.957Z,1.53
2018-08-20T19:40:37.895Z,6.43
2018-08-20T19:43:05.733Z,13.93
2018-08-20T19:45:37.932Z,4.63
2018-08-20T19:48:05.834Z,8.13
2018-08-20T19:50:33.694Z,5.73
2018-08-20T19:53:07.077Z,3.13
2018-08-20T19:55:34.997Z,10.50
2018-08-20T19:58:02.810Z,7.53
2018-08-20T20:00:30.608Z,5.80
2018-08-20T20:02:58.413Z,10.73
2018-08-20T20:05:26.477Z,11.67
2018-08-20T20:08:03.066Z,6.20
2018-08-20T20:10:31.351Z,11.60
2018-08-20T20:12:59.413Z,9.80
2018-08-20T20:15:27.383Z,14.97
2018-08-20T20:17:55.997Z,9.10
2018-08-20T20:20:23.997Z,7.33
2018-08-20T20:22:51.836Z,2.37
2018-08-20T20:25:19.537Z,4.27
2018-08-20T20:27:47.389Z,6.97
2018-08-20T20:30:15.684Z,8.80
2018-08-20T20:32:43.509Z,1.70
2018-08-20T20:35:11.670Z,1.80
2018-08-20T20:37:39.557Z,10.50
2018-08-20T20:40:07.800Z,2.17
2018-08-20T20:42:35.670Z,8.13
2018-08-20T20:45:03.367Z,7.00
2018-08-20T20:47:31.033Z,7.80
2018-08-20T20:49:58.689Z,5.20
2018-08-20T20:52:26.375Z,3.33
2018-08-20T20:54:54.510Z,5.30
2018-08-20T20:57:22.395Z,5.60
2018-08-20T20:59:50.485Z,3.47
2018-08-20T21:02:18.376Z,10.03
2018-08-20T21:04:46.031Z,8.50
2018-08-20T21:07:17.670Z,2.53
2018-08-20T21:09:49.098Z,9.33
2018-08-20T21:12:17.839Z,6.97
2018-08-20T21:14:46.205Z,2.77
2018-08-20T21:17:14.112Z,6.47
2018-08-20T21:19:41.781Z,4.57
2018-08-20T21:22:09.685Z,4.70
2018-08-20T21:24:38.758Z,4.30
2018-08-20T21:27:13.292Z,4.60
2018-08-20T21:29:41.273Z,3.10
2018-08-20T21:32:08.955Z,4.20
2018-08-20T21:34:40.460Z,5.53
2018-08-20T21:37:08.770Z,9.33
2018-08-20T21:39:36.793Z,4.60
2018-08-20T21:42:04.453Z,2.80
2018-08-20T21:44:32.203Z,4.37
2018-08-20T21:47:09.852Z,5.00
2018-08-20T21:49:37.761Z,4.97
2018-08-20T21:52:05.428Z,4.13
2018-08-20T21:54:38.853Z,3.87
2018-08-20T21:57:06.541Z,6.63
2018-08-20T21:59:34.161Z,6.00
2018-08-20T22:02:01.840Z,2.90
2018-08-20T22:04:30.264Z,3.40
2018-08-20T22:06:58.813Z,2.33
2018-08-20T22:09:26.454Z,1.50
2018-08-20T22:11:55.173Z,2.87
2018-08-20T22:14:22.868Z,4.90
2018-08-20T22:16:50.560Z,2.90
2018-08-20T22:19:18.716Z,4.67
2018-08-20T22:21:46.333Z,2.90
2018-08-20T22:24:14.034Z,3.37
2018-08-20T22:26:50.200Z,3.00
2018-08-20T22:29:18.804Z,9.67
2018-08-20T22:31:51.850Z,25.23
2018-08-20T22:34:20.138Z,10.80
2018-08-20T22:36:52.259Z,8.30
2018-08-20T22:39:20.281Z,5.23
2018-08-20T22:41:48.215Z,6.10
2018-08-20T22:44:15.911Z,3.93
2018-08-20T22:46:43.973Z,2.70
2018-08-20T22:49:12.278Z,4.70
2018-08-20T22:51:40.585Z,5.13
2018-08-20T22:54:08.426Z,4.80
2018-08-20T22:56:36.312Z,6.50
2018-08-20T22:59:07.011Z,3.00
2018-08-20T23:01:34.668Z,3.03
2018-08-20T23:04:02.300Z,3.43
2018-08-20T23:06:30.356Z,4.53
2018-08-20T23:08:58.045Z,3.77
2018-08-20T23:11:40.014Z,1.97
2018-08-20T23:14:09.916Z,6.20
2018-08-20T23:16:37.862Z,3.20
2018-08-20T23:19:05.566Z,4.63
2018-08-20T23:21:39.683Z,2.90
2018-08-20T23:24:07.516Z,5.10
2018-08-20T23:26:35.241Z,3.47
2018-08-20T23:29:03.317Z,5.20
2018-08-20T23:31:31.298Z,2.90
2018-08-20T23:33:59.003Z,3.43
2018-08-20T23:36:26.660Z,6.50
2018-08-20T23:38:54.296Z,3.63
2018-08-20T23:41:22.014Z,4.27
2018-08-20T23:43:57.047Z,7.00
2018-08-20T23:46:32.559Z,2.77
2018-08-20T23:49:01.164Z,5.47
2018-08-20T23:51:28.796Z,3.53
2018-08-20T23:53:56.770Z,1.90
2018-08-20T23:56:24.437Z,7.13
2018-08-20T23:58:52.104Z,4.93
